x

Virginia Beach 64 Nm East Of Virginia Beach, Va (44014) Wave Buoy

10:50am - Thu 31st Jul 2014 All times are EDT. -4 hours from GMT.

  • Sig Wave height 2.3ft
  • Peak Period 8s
  • Wind
    2mph
  • Sea Temp 78°f
  • 空気 Temp 78°f
  • Sea Pressure 1020.7mb
  • Virginia Beach 64 Nm East Of Virginia Beach, Va
  • Virginia Beach 64 Nm East Of Virginia Beach, Va

More Historic Weather Station data

Upgrade to MSW Pro to gain access to the past 30 days of data for over 8000 Wavebouys and Weather Stations around the globe.

Join Pro

Comparision Forecast

View Surf forecast
   
Thu 07/31 10:50am 2.5ft 8s 2
mph
1020.7mb 78f 78f
9:50am 2.5ft 7s 2 4 mph 1020.4mb 78f 76f
8:50am 2.5ft 8s 2 4 mph 1020.3mb 78f 76f
7:50am 2.5ft 8s 4 7 mph 1020.1mb 78f 76f
6:50am 2.5ft 8s 2 4 mph 1019.5mb 77f 76f
5:50am 2.5ft 8s 4
mph
1019.2mb 77f 76f
4:50am 2.5ft 8s 4 7 mph 1018.9mb 78f 75f
3:50am 2.5ft 8s 7 9 mph 1018.7mb 78f 75f
2:50am 2.5ft 8s 9 11 mph 1018.5mb 78f 75f
1:50am 2.5ft 8s 9 11 mph 1018.6mb 78f 75f
12:50am 2.5ft 8s 7 9 mph 1018.6mb 78f 75f
Wed 07/30 10:50pm 2.5ft 7s 7 9 mph 1018.6mb 78f 74f
9:50pm 2.5ft 8s 7 9 mph 1018.5mb 78f 74f
8:50pm 2.5ft 7s 7 9 mph 1018.2mb 78f 74f
7:50pm 2.5ft 7s 7 9 mph 1017.9mb 78f 75f
6:50pm 2.5ft 7s 7 9 mph 1017.8mb 78f 75f
5:50pm 2.5ft 8s 9 11 mph 1017.7mb 78f 75f
4:50pm 2.5ft 8s 9 13 mph 1017.6mb 78f 74f
3:50pm 3ft 8s 11 13 mph 1017.9mb 78f 74f
2:50pm 2.5ft 8s 11 16 mph 1017.8mb 78f 74f
1:50pm 2.5ft 8s 11 16 mph 1017.8mb 78f 74f
12:50pm 2.5ft 8s 11 13 mph 1018.1mb 78f 74f
11:50am 2.5ft 8s 11 13 mph 1018.2mb 78f 74f
10:50am 2.5ft 8s 9 11 mph 1018mb 78f 74f
9:50am 2.5ft 8s 11 13 mph 1017.6mb 78f 74f
8:50am 2.5ft 8s 11 13 mph 1017.1mb 78f 75f
7:50am 2.5ft 9s 11 13 mph 1016.6mb 78f 74f
6:50am 2.5ft 7s 11 16 mph 1016.1mb 78f 74f
5:50am 2.5ft 7s 9 11 mph 1015.6mb 78f 74f
4:50am 2.5ft 8s 11 13 mph 1015.2mb 78f 74f
3:50am 2.5ft 8s 9 13 mph 1014.8mb 78f 75f
2:50am 2ft 7s 9 11 mph 1014.7mb 78f 75f
1:50am 2.5ft 8s 7 9 mph 1014.9mb 78f 74f
12:50am 2.5ft 8s 7 9 mph 1015.2mb 78f 75f
Tue 07/29 11:50pm 2ft 8s 9 11 mph 1015.4mb 78f 75f
10:50pm 2.5ft 8s 9 11 mph 1015.6mb 78f 74f
9:50pm 2.5ft 7s 11 13 mph 1015.2mb 78f 74f
8:50pm 2.5ft 8s 11 13 mph 1014.5mb 79f 74f
7:50pm 2ft 8s 11 13 mph 1014mb 79f 74f
6:50pm 2.5ft 8s 9 13 mph 1014mb 79f 74f
5:50pm 2.5ft 8s 9 11 mph 1014mb 79f 74f
4:50pm 2.5ft 7s 11 13 mph 1013mb 79f 74f
3:50pm 2.5ft 8s 11 13 mph 1012.9mb 79f 74f
2:50pm 2.5ft 5s 9 11 mph 1013.4mb 79f 74f
1:50pm 2.5ft 7s 9 13 mph 1013.1mb 78f 74f
12:50pm 3ft 8s 9 11 mph 1012.9mb 78f 74f
11:50am 3.5ft 5s 11 13 mph 1012.3mb 79f 74f
10:50am 3ft 5s 9 13 mph 1012.1mb 78f 74f
9:50am 3.5ft 5s 11 13 mph 1011.9mb 78f 74f
8:50am 3.5ft 5s 13 16 mph 1011.5mb 78f 74f
7:50am 3.5ft 5s 13 18 mph 1011.1mb 78f 74f
6:50am 3.5ft 5s 16 18 mph 1010.6mb 78f 74f
5:50am 3ft 5s 13 16 mph 1010.4mb 78f 75f
4:50am 3ft 4s 13 18 mph 1009.6mb 78f 76f
3:50am 3.5ft 4s 16 20 mph 1009.3mb 78f 76f
2:50am 3.5ft 4s 18 20 mph 1008.7mb 78f 78f
1:50am 3.5ft 4s 13 18 mph 1009.1mb 78f 79f
12:50am 3.5ft 6s 13 16 mph 1008.7mb 78f 80f
Mon 07/28 11:50pm 4.5ft 7s 13 16 mph 1008.4mb 78f 80f
10:50pm 4ft 7s 16 20 mph 1007.4mb 78f 80f
9:50pm 4ft 6s 11 13 mph 1007.8mb 78f 80f
8:50pm 4ft 6s 13 16 mph 1007.7mb 78f 81f
7:50pm 4ft 7s 11 16 mph 1007.3mb 79f 80f
6:50pm 3.5ft 7s 11 13 mph 1006.5mb 79f 81f
5:50pm 4ft 7s 13 16 mph 1006.2mb 79f 81f
4:50pm 4ft 7s 13 16 mph 1006.2mb 79f 81f
3:50pm 4.5ft 7s 18 20 mph 1005.9mb 79f 81f
2:50pm 4.5ft 7s 18 22 mph 1005.6mb 78f 81f
1:50pm 5ft 7s 20 22 mph 1005.5mb 78f 81f
12:50pm 5ft 6s 20 25 mph 1005.3mb 78f 80f
11:50am 5ft 7s 18 22 mph 1005.7mb 78f 80f
10:50am 5ft 6s 18 20 mph 1005.5mb 78f 80f
9:50am 5ft 6s 20 25 mph 1005.2mb 78f 81f
8:50am 4.5ft 6s 22 25 mph 1004.9mb 78f 80f
7:50am 4.5ft 5s 22 27 mph 1004.6mb 78f 80f
6:50am 4ft 5s 22 25 mph 1004.6mb 78f 80f
5:50am 4ft 5s 22 27 mph 1004.2mb 78f 80f
4:50am 3.5ft 5s 22 27 mph 1004.3mb 78f 80f
3:50am 3.5ft 5s 22 27 mph 1004.3mb 78f 80f
2:50am 3ft 5s 20 25 mph 1005.3mb 78f 80f
1:50am 2.5ft 5s 16 20 mph 1006.4mb 78f 79f
12:50am 3ft 4s 13 16 mph 1007.4mb 78f 79f
Sun 07/27 11:50pm 2.5ft 4s 16 18 mph 1008.1mb 78f 79f
10:50pm 2.5ft 11s 13 16 mph 1008.3mb 78f 79f
9:50pm 2.5ft 4s 16 18 mph 1008.7mb 78f 80f
8:50pm 2.5ft 5s 16 18 mph 1008.5mb 78f 80f
7:50pm 2.5ft 5s 9
mph
1008.4mb 79f 79f
6:50pm 2.5ft 4s 11 13 mph 1008.5mb 79f 79f
5:50pm 2.5ft 5s 7 9 mph 1008.9mb 79f 80f
4:50pm 2.5ft 4s 7 9 mph 1009.1mb 79f 80f
3:50pm 2.5ft 4s 9
mph
1010mb 79f 79f